createdAt,value
2017-09-19T00:01:52.025Z,7.70
2017-09-19T00:04:35.257Z,7.70
2017-09-19T00:07:03.294Z,7.70
2017-09-19T00:09:31.321Z,7.70
2017-09-19T00:12:00.328Z,7.70
2017-09-19T00:14:28.348Z,7.80
2017-09-19T00:17:06.344Z,7.80
2017-09-19T00:19:34.365Z,7.80
2017-09-19T00:22:02.709Z,8.00
2017-09-19T00:24:30.752Z,8.00
2017-09-19T00:27:03.272Z,7.90
2017-09-19T00:29:32.288Z,8.00
2017-09-19T00:32:02.997Z,8.00
2017-09-19T00:34:31.056Z,8.00
2017-09-19T00:36:59.089Z,8.10
2017-09-19T00:39:27.136Z,8.10
2017-09-19T00:41:59.496Z,8.20
2017-09-19T00:44:30.633Z,8.20
2017-09-19T00:46:58.721Z,8.20
2017-09-19T00:49:29.433Z,8.20
2017-09-19T00:52:02.533Z,8.20
2017-09-19T00:54:37.013Z,8.20
2017-09-19T00:57:05.048Z,8.20
2017-09-19T00:59:55.980Z,8.40
2017-09-19T01:02:24.013Z,8.40
2017-09-19T01:04:53.705Z,8.30
2017-09-19T01:07:27.916Z,8.30
2017-09-19T01:09:55.909Z,8.20
2017-09-19T01:12:24.700Z,8.30
2017-09-19T01:14:54.396Z,8.30
2017-09-19T01:17:23.196Z,8.20
2017-09-19T01:19:56.944Z,8.30
2017-09-19T01:22:24.947Z,8.30
2017-09-19T01:24:53.872Z,8.30
2017-09-19T01:27:27.848Z,8.30
2017-09-19T01:29:56.756Z,8.30
2017-09-19T01:32:25.552Z,8.40
2017-09-19T01:34:53.592Z,8.30
2017-09-19T01:37:22.604Z,8.30
2017-09-19T01:39:57.244Z,8.20
2017-09-19T01:42:31.591Z,8.20
2017-09-19T01:44:59.656Z,8.30
2017-09-19T01:47:29.348Z,8.40
2017-09-19T01:49:57.372Z,8.30
2017-09-19T01:52:25.424Z,8.30
2017-09-19T01:54:57.716Z,8.30
2017-09-19T01:57:25.748Z,8.20
2017-09-19T01:59:53.776Z,8.20
2017-09-19T02:02:24.479Z,8.40
2017-09-19T02:04:52.540Z,8.30
2017-09-19T02:07:24.307Z,8.30
2017-09-19T02:10:05.556Z,8.30
2017-09-19T02:12:38.887Z,8.30
2017-09-19T02:15:06.920Z,8.30
2017-09-19T02:17:36.908Z,8.30
2017-09-19T02:20:04.939Z,8.20
2017-09-19T02:22:33.931Z,8.20
2017-09-19T02:25:01.954Z,8.10
2017-09-19T02:27:35.507Z,8.00
2017-09-19T02:30:05.569Z,8.00
2017-09-19T02:32:33.579Z,8.00
2017-09-19T02:35:03.616Z,8.10
2017-09-19T02:37:38.284Z,8.20
2017-09-19T02:40:06.323Z,8.20
2017-09-19T02:42:39.282Z,8.20
2017-09-19T02:45:19.825Z,8.10
2017-09-19T02:47:47.871Z,8.10
2017-09-19T02:53:09.356Z,8.00
2017-09-19T02:55:42.070Z,8.00
2017-09-19T02:58:10.051Z,8.00
2017-09-19T03:00:40.032Z,8.00
2017-09-19T03:03:08.823Z,8.00
2017-09-19T03:05:50.739Z,7.90
2017-09-19T03:08:19.690Z,7.90
2017-09-19T03:10:48.671Z,7.90
2017-09-19T03:13:24.267Z,7.80
2017-09-19T03:16:00.450Z,7.80
2017-09-19T03:18:29.283Z,7.80
2017-09-19T03:20:59.283Z,7.80
2017-09-19T03:23:31.387Z,7.80
2017-09-19T03:26:00.343Z,7.70
2017-09-19T03:28:28.362Z,7.80
2017-09-19T03:30:57.348Z,7.80
2017-09-19T03:33:25.367Z,7.70
2017-09-19T03:35:53.383Z,7.60
2017-09-19T03:38:22.362Z,7.50
2017-09-19T03:40:53.066Z,7.50
2017-09-19T03:43:21.083Z,7.50
2017-09-19T03:45:50.040Z,7.50
2017-09-19T03:48:21.082Z,7.50
2017-09-19T03:50:49.111Z,7.60
2017-09-19T03:53:18.158Z,7.70
2017-09-19T03:55:49.906Z,7.70
2017-09-19T04:01:14.299Z,7.70
2017-09-19T04:03:48.830Z,7.70
2017-09-19T04:06:23.362Z,7.60
2017-09-19T04:09:05.606Z,7.60
2017-09-19T04:11:39.874Z,7.60
2017-09-19T04:14:15.678Z,7.60
2017-09-19T04:16:47.179Z,7.40
2017-09-19T04:19:35.055Z,7.40
2017-09-19T04:22:06.130Z,7.40
2017-09-19T04:24:34.171Z,7.30
2017-09-19T04:27:02.166Z,7.20
2017-09-19T04:29:30.206Z,7.20
2017-09-19T04:31:58.226Z,7.20
2017-09-19T04:34:27.196Z,7.30
2017-09-19T04:37:00.226Z,7.30
2017-09-19T04:39:28.262Z,7.40
2017-09-19T04:41:56.312Z,7.40
2017-09-19T04:44:27.394Z,7.40
2017-09-19T04:46:57.182Z,7.40
2017-09-19T04:49:29.350Z,7.40
2017-09-19T04:52:00.595Z,7.40
2017-09-19T04:54:30.622Z,7.40
2017-09-19T04:57:04.705Z,7.40
2017-09-19T04:59:35.718Z,7.50
2017-09-19T05:02:03.735Z,7.40
2017-09-19T05:04:31.758Z,7.30
2017-09-19T05:06:59.794Z,7.30
2017-09-19T05:09:30.495Z,7.30
2017-09-19T05:14:39.258Z,7.40
2017-09-19T05:17:27.141Z,7.40
2017-09-19T05:19:57.102Z,7.40
2017-09-19T05:22:28.150Z,7.40
2017-09-19T05:24:57.962Z,7.50
2017-09-19T05:27:25.990Z,7.50
2017-09-19T05:29:54.011Z,7.60
2017-09-19T05:32:22.814Z,7.70
2017-09-19T05:35:07.390Z,7.70
2017-09-19T05:37:36.398Z,7.80
2017-09-19T05:40:04.430Z,7.80
2017-09-19T05:42:32.526Z,7.70
2017-09-19T05:45:01.306Z,7.80
2017-09-19T05:47:32.154Z,7.80
2017-09-19T05:50:01.250Z,7.80
2017-09-19T05:52:41.606Z,7.90
2017-09-19T05:55:16.354Z,7.90
2017-09-19T05:57:46.373Z,8.00
2017-09-19T06:00:14.422Z,8.10
2017-09-19T06:02:47.092Z,8.10
2017-09-19T06:05:20.830Z,8.20
2017-09-19T06:07:49.994Z,8.30
2017-09-19T06:10:32.889Z,8.40
2017-09-19T06:13:01.873Z,8.60
2017-09-19T06:15:30.654Z,8.90
2017-09-19T06:18:00.426Z,9.00
2017-09-19T06:20:41.074Z,9.00
2017-09-19T06:23:09.106Z,9.00
2017-09-19T06:25:37.906Z,9.20
2017-09-19T06:28:05.945Z,9.20
2017-09-19T06:30:36.683Z,9.50
2017-09-19T06:33:09.271Z,9.50
2017-09-19T06:35:38.078Z,9.70
2017-09-19T06:38:08.037Z,9.60
2017-09-19T06:40:39.925Z,9.70
2017-09-19T06:43:10.637Z,10.00
2017-09-19T06:45:39.670Z,9.90
2017-09-19T06:48:07.697Z,10.00
2017-09-19T06:50:36.693Z,10.20
2017-09-19T06:53:05.714Z,10.40
2017-09-19T06:55:34.714Z,10.40
2017-09-19T06:58:09.317Z,10.00
2017-09-19T07:00:40.029Z,9.80
2017-09-19T07:03:09.054Z,9.80
2017-09-19T07:05:48.537Z,9.80
2017-09-19T07:08:33.084Z,9.80
2017-09-19T07:11:01.101Z,9.90
2017-09-19T07:13:33.436Z,10.20
2017-09-19T07:16:04.961Z,10.20
2017-09-19T07:18:33.677Z,10.30
2017-09-19T07:21:01.701Z,10.60
2017-09-19T07:23:29.749Z,10.80
2017-09-19T07:26:03.193Z,11.00
2017-09-19T07:28:37.633Z,11.10
2017-09-19T07:31:05.677Z,11.20
2017-09-19T07:33:37.601Z,11.40
2017-09-19T07:36:06.413Z,11.20
2017-09-19T07:38:36.361Z,11.20
2017-09-19T07:41:05.285Z,11.30
2017-09-19T07:43:33.329Z,11.40
2017-09-19T07:46:01.385Z,11.60
2017-09-19T07:48:36.777Z,11.90
2017-09-19T07:51:04.796Z,12.00
2017-09-19T07:53:42.261Z,12.50
2017-09-19T07:56:10.313Z,12.50
2017-09-19T07:58:39.117Z,13.30
2017-09-19T08:01:07.217Z,13.20
2017-09-19T08:03:42.692Z,13.60
2017-09-19T08:06:17.211Z,13.60
2017-09-19T08:08:45.284Z,14.10
2017-09-19T08:11:14.268Z,14.50
2017-09-19T08:13:46.836Z,14.60
2017-09-19T08:16:18.579Z,14.90
2017-09-19T08:18:46.625Z,14.80
2017-09-19T08:21:15.600Z,14.80
2017-09-19T08:23:51.836Z,14.90
2017-09-19T08:26:19.864Z,14.90
2017-09-19T08:28:49.816Z,15.20
2017-09-19T08:31:17.848Z,15.60
2017-09-19T08:33:49.577Z,15.70
2017-09-19T08:36:19.252Z,16.20
2017-09-19T08:38:57.780Z,16.60
2017-09-19T08:41:36.868Z,16.80
2017-09-19T08:44:04.976Z,16.30
2017-09-19T08:46:32.976Z,16.00
2017-09-19T08:49:01.043Z,16.00
2017-09-19T08:51:30.012Z,16.00
2017-09-19T08:54:03.890Z,16.10
2017-09-19T08:56:38.632Z,16.20
2017-09-19T08:59:07.552Z,15.70
2017-09-19T09:01:36.344Z,14.80
2017-09-19T09:04:06.092Z,14.40
2017-09-19T09:06:35.020Z,14.40
2017-09-19T09:09:03.044Z,14.20
2017-09-19T09:11:31.080Z,14.30
2017-09-19T09:14:04.352Z,14.50
2017-09-19T09:16:50.840Z,14.50
2017-09-19T09:19:29.042Z,14.60
2017-09-19T09:22:04.836Z,14.70
2017-09-19T09:24:47.240Z,15.20
2017-09-19T09:27:17.980Z,15.40
2017-09-19T09:29:47.779Z,15.30
2017-09-19T09:32:18.507Z,15.50
2017-09-19T09:34:49.843Z,15.50
2017-09-19T09:37:42.563Z,15.60
2017-09-19T09:40:10.631Z,15.60
2017-09-19T09:42:39.448Z,15.90
2017-09-19T09:45:11.716Z,15.90
2017-09-19T09:47:39.747Z,15.80
2017-09-19T09:50:28.616Z,15.80
2017-09-19T09:53:01.448Z,15.90
2017-09-19T09:55:32.163Z,17.00
2017-09-19T09:58:01.087Z,17.00
2017-09-19T10:00:35.604Z,18.50
2017-09-19T10:03:04.429Z,18.80
2017-09-19T10:05:43.687Z,18.80
2017-09-19T10:08:13.728Z,18.70
2017-09-19T10:10:42.708Z,18.30
2017-09-19T10:13:11.712Z,17.60
2017-09-19T10:15:41.776Z,17.90
2017-09-19T10:18:09.779Z,18.10
2017-09-19T10:20:38.759Z,18.00
2017-09-19T10:23:14.307Z,18.70
2017-09-19T10:25:42.349Z,19.70
2017-09-19T10:28:10.347Z,21.40
2017-09-19T10:30:48.548Z,22.50
2017-09-19T10:33:21.751Z,23.20
2017-09-19T10:35:53.627Z,22.30
2017-09-19T10:38:22.615Z,21.10
2017-09-19T10:40:51.592Z,20.40
2017-09-19T10:43:24.027Z,19.20
2017-09-19T10:45:52.043Z,18.00
2017-09-19T10:48:20.120Z,17.50
2017-09-19T10:50:51.395Z,17.00
2017-09-19T10:53:23.115Z,16.50
2017-09-19T10:55:52.131Z,16.50
2017-09-19T10:58:21.102Z,16.50
2017-09-19T11:01:03.414Z,16.60
2017-09-19T11:06:26.890Z,16.40
2017-09-19T11:09:00.691Z,16.60
2017-09-19T11:11:28.735Z,16.50
2017-09-19T11:14:00.315Z,16.50
2017-09-19T11:16:28.339Z,16.50
2017-09-19T11:18:57.362Z,16.30
2017-09-19T11:21:26.423Z,16.20
2017-09-19T11:24:04.867Z,15.90
2017-09-19T11:26:32.894Z,15.90
2017-09-19T11:29:00.923Z,15.80
2017-09-19T11:31:30.985Z,15.50
2017-09-19T11:34:00.995Z,15.20
2017-09-19T11:36:32.259Z,15.10
2017-09-19T11:39:00.270Z,15.10
2017-09-19T11:41:41.335Z,15.10
2017-09-19T11:44:11.082Z,15.30
2017-09-19T11:46:44.466Z,15.50
2017-09-19T11:49:13.442Z,15.50
2017-09-19T11:51:43.466Z,16.00
2017-09-19T11:54:15.113Z,16.30
2017-09-19T11:56:44.126Z,16.40
2017-09-19T11:59:22.610Z,16.50
2017-09-19T12:01:52.650Z,17.00
2017-09-19T12:04:25.639Z,17.60
2017-09-19T12:07:04.032Z,18.50
2017-09-19T12:12:37.947Z,20.80
2017-09-19T12:15:12.862Z,20.70
2017-09-19T12:17:42.811Z,21.20
2017-09-19T12:20:22.526Z,20.90
2017-09-19T12:23:04.194Z,20.50
2017-09-19T12:25:32.214Z,20.10
2017-09-19T12:28:03.582Z,19.60
2017-09-19T12:30:37.270Z,19.40
2017-09-19T12:33:05.294Z,19.10
2017-09-19T12:35:33.306Z,18.40
2017-09-19T12:38:02.313Z,17.40
2017-09-19T12:43:30.982Z,16.00
2017-09-19T12:46:02.462Z,15.00
2017-09-19T12:48:31.450Z,14.40
2017-09-19T12:50:59.510Z,14.00
2017-09-19T12:53:27.546Z,13.80
2017-09-19T12:56:03.342Z,13.80
2017-09-19T12:58:41.613Z,13.90
2017-09-19T13:01:14.022Z,14.30
2017-09-19T13:03:45.146Z,14.30
2017-09-19T13:06:15.214Z,14.60
2017-09-19T13:08:43.250Z,14.80
2017-09-19T13:11:12.294Z,14.90
2017-09-19T13:13:58.146Z,15.10
2017-09-19T13:16:38.050Z,15.30
2017-09-19T13:19:07.998Z,15.20
2017-09-19T13:21:42.883Z,14.90
2017-09-19T13:24:16.818Z,14.50
2017-09-19T13:26:49.446Z,14.00
2017-09-19T13:29:19.214Z,13.30
2017-09-19T13:32:00.926Z,13.30
2017-09-19T13:34:29.726Z,13.10
2017-09-19T13:37:03.798Z,13.10
2017-09-19T13:39:31.837Z,13.10
2017-09-19T13:42:01.785Z,13.00
2017-09-19T13:44:33.562Z,13.00
2017-09-19T13:47:01.585Z,13.10
2017-09-19T13:49:29.605Z,13.10
2017-09-19T13:52:04.974Z,13.30
2017-09-19T13:54:50.681Z,13.30
2017-09-19T13:57:29.822Z,13.40
2017-09-19T14:00:01.086Z,13.60
2017-09-19T14:02:29.125Z,13.60
2017-09-19T14:05:03.501Z,13.60
2017-09-19T14:07:35.962Z,13.80
2017-09-19T14:10:04.122Z,13.80
2017-09-19T14:12:32.133Z,14.00
2017-09-19T14:15:00.274Z,14.10
2017-09-19T14:17:42.505Z,14.10
2017-09-19T14:20:11.170Z,14.20
2017-09-19T14:22:40.141Z,14.10
2017-09-19T14:25:09.141Z,14.10
2017-09-19T14:27:40.793Z,14.10
2017-09-19T14:30:08.837Z,14.30
2017-09-19T14:32:37.005Z,14.40
2017-09-19T14:35:09.030Z,14.30
2017-09-19T14:37:48.241Z,14.30
2017-09-19T14:40:20.057Z,14.20
2017-09-19T14:42:48.873Z,14.70
2017-09-19T14:45:16.929Z,14.70
2017-09-19T14:47:44.957Z,15.10
2017-09-19T14:50:12.985Z,15.40
2017-09-19T14:52:45.569Z,15.50
2017-09-19T14:55:13.593Z,15.40
2017-09-19T14:58:00.792Z,15.20
2017-09-19T15:00:28.820Z,15.10
2017-09-19T15:03:05.093Z,14.80
2017-09-19T15:05:35.113Z,14.80
2017-09-19T15:08:03.177Z,14.70
2017-09-19T15:10:32.189Z,14.60
2017-09-19T15:13:02.984Z,14.90
2017-09-19T15:15:31.041Z,14.90
2017-09-19T15:17:59.060Z,15.10
2017-09-19T15:20:27.904Z,14.80
2017-09-19T15:23:01.440Z,14.80
2017-09-19T15:25:30.544Z,15.00
2017-09-19T15:28:11.327Z,15.30
2017-09-19T15:30:40.421Z,15.40
2017-09-19T15:33:11.128Z,15.20
2017-09-19T15:35:40.116Z,15.20
2017-09-19T15:38:08.131Z,15.60
2017-09-19T15:40:37.072Z,15.90
2017-09-19T15:43:05.104Z,16.40
2017-09-19T15:45:35.072Z,16.10
2017-09-19T15:48:03.092Z,15.50
2017-09-19T15:50:32.108Z,15.10
2017-09-19T15:53:00.180Z,14.80
2017-09-19T15:55:32.785Z,14.40
2017-09-19T15:58:00.796Z,14.10
2017-09-19T16:00:30.768Z,13.80
2017-09-19T16:03:01.480Z,13.60
2017-09-19T16:05:29.500Z,13.60
2017-09-19T16:08:05.296Z,13.40
2017-09-19T16:10:34.220Z,13.40
2017-09-19T16:13:03.012Z,13.30
2017-09-19T16:15:35.487Z,13.20
2017-09-19T16:18:05.268Z,13.20
2017-09-19T16:20:33.292Z,13.20
2017-09-19T16:23:02.358Z,13.10
2017-09-19T16:25:30.384Z,13.00
2017-09-19T16:28:01.956Z,13.00
2017-09-19T16:30:29.983Z,13.00
2017-09-19T16:32:59.984Z,13.00
2017-09-19T16:35:29.641Z,13.10
2017-09-19T16:38:02.765Z,13.00
2017-09-19T16:43:26.949Z,13.10
2017-09-19T16:45:54.996Z,13.00
2017-09-19T16:48:24.868Z,13.00
2017-09-19T16:50:58.072Z,12.90
2017-09-19T16:53:26.092Z,12.80
2017-09-19T16:55:56.816Z,12.60
2017-09-19T16:58:28.992Z,12.60
2017-09-19T17:00:57.969Z,12.50
2017-09-19T17:03:31.712Z,12.50
2017-09-19T17:06:02.463Z,12.30
2017-09-19T17:08:30.484Z,12.30
2017-09-19T17:11:02.461Z,12.20
2017-09-19T17:13:31.243Z,11.90
2017-09-19T17:16:01.036Z,11.80
2017-09-19T17:18:31.064Z,11.80
2017-09-19T17:20:59.087Z,11.70
2017-09-19T17:23:30.899Z,11.60
2017-09-19T17:25:59.687Z,11.30
2017-09-19T17:28:50.027Z,11.20
2017-09-19T17:31:19.091Z,11.10
2017-09-19T17:33:48.800Z,10.70
2017-09-19T17:36:16.827Z,10.70
2017-09-19T17:38:44.865Z,10.50
2017-09-19T17:41:15.227Z,10.40
2017-09-19T17:43:44.215Z,10.20
2017-09-19T17:46:19.163Z,10.10
2017-09-19T17:48:49.903Z,10.00
2017-09-19T17:51:26.983Z,9.90
2017-09-19T17:53:59.127Z,9.90
2017-09-19T17:56:28.839Z,10.00
2017-09-19T17:58:58.968Z,9.90
2017-09-19T18:01:26.987Z,9.90
2017-09-19T18:04:02.283Z,9.90
2017-09-19T18:06:30.275Z,9.70
2017-09-19T18:08:58.295Z,9.60
2017-09-19T18:11:27.319Z,9.50
2017-09-19T18:13:57.102Z,9.30
2017-09-19T18:16:26.111Z,9.30
2017-09-19T18:19:02.127Z,9.30
2017-09-19T18:21:30.184Z,9.40
2017-09-19T18:23:59.127Z,9.40
2017-09-19T18:26:35.567Z,9.40
2017-09-19T18:29:03.587Z,9.30
2017-09-19T18:31:38.302Z,9.10
2017-09-19T18:34:06.524Z,9.10
2017-09-19T18:36:36.459Z,9.00
2017-09-19T18:39:14.965Z,9.00
2017-09-19T18:41:46.222Z,9.00
2017-09-19T18:44:15.287Z,9.00
2017-09-19T18:46:45.057Z,8.90
2017-09-19T18:49:13.846Z,8.90
2017-09-19T18:51:42.642Z,8.90
2017-09-19T18:54:11.451Z,8.90
2017-09-19T18:56:41.414Z,8.80
2017-09-19T18:59:11.431Z,8.80
2017-09-19T19:01:39.471Z,8.80
2017-09-19T19:04:09.287Z,8.70
2017-09-19T19:06:42.615Z,8.60
2017-09-19T19:09:13.643Z,8.60
2017-09-19T19:11:47.463Z,8.60
2017-09-19T19:14:15.510Z,8.50
2017-09-19T19:16:43.522Z,8.30
2017-09-19T19:19:11.546Z,8.20
2017-09-19T19:21:51.382Z,8.20
2017-09-19T19:27:30.451Z,8.20
2017-09-19T19:30:05.012Z,8.20
2017-09-19T19:32:39.394Z,8.10
2017-09-19T19:35:18.914Z,8.10
2017-09-19T19:37:51.919Z,8.10
2017-09-19T19:40:27.691Z,8.10
2017-09-19T19:42:59.846Z,8.00
2017-09-19T19:45:48.858Z,8.00
2017-09-19T19:48:17.794Z,7.90
2017-09-19T19:50:46.834Z,7.90
2017-09-19T19:53:14.858Z,8.00
2017-09-19T19:55:42.950Z,8.10
2017-09-19T19:58:14.886Z,8.10
2017-09-19T20:00:42.930Z,8.10
2017-09-19T20:03:12.866Z,8.20
2017-09-19T20:05:44.530Z,8.30
2017-09-19T20:08:18.283Z,8.30
2017-09-19T20:10:47.070Z,8.20
2017-09-19T20:13:16.006Z,8.20
2017-09-19T20:15:44.030Z,8.20
2017-09-19T20:18:14.018Z,8.20
2017-09-19T20:20:42.810Z,8.10
2017-09-19T20:23:11.591Z,8.20
2017-09-19T20:25:44.962Z,8.10
2017-09-19T20:28:12.990Z,8.10
2017-09-19T20:30:41.007Z,8.10
2017-09-19T20:33:09.046Z,8.10
2017-09-19T20:35:43.109Z,8.20
2017-09-19T20:38:13.866Z,8.40
2017-09-19T20:40:42.814Z,8.40
2017-09-19T20:43:11.834Z,8.40
2017-09-19T20:45:41.574Z,8.40
2017-09-19T20:48:19.522Z,8.40
2017-09-19T20:51:01.050Z,8.50
2017-09-19T20:53:31.010Z,8.40
2017-09-19T20:55:59.058Z,8.30
2017-09-19T20:58:27.117Z,8.10
2017-09-19T21:01:00.849Z,8.00
2017-09-19T21:03:34.485Z,8.00
2017-09-19T21:06:09.086Z,8.10
2017-09-19T21:08:45.733Z,8.00
2017-09-19T21:11:19.473Z,8.10
2017-09-19T21:13:55.074Z,8.10
2017-09-19T21:16:32.114Z,8.00
2017-09-19T21:19:08.401Z,7.80
2017-09-19T21:21:36.433Z,7.80
2017-09-19T21:24:09.177Z,7.70
2017-09-19T21:26:38.105Z,7.60
2017-09-19T21:29:07.114Z,7.50
2017-09-19T21:31:44.245Z,7.30
2017-09-19T21:34:14.187Z,7.20
2017-09-19T21:36:42.213Z,7.20
2017-09-19T21:39:13.917Z,7.10
2017-09-19T21:41:43.930Z,7.10
2017-09-19T21:44:11.953Z,7.10
2017-09-19T21:46:45.985Z,7.20
2017-09-19T21:49:17.241Z,7.30
2017-09-19T21:51:46.257Z,7.20
2017-09-19T21:54:14.289Z,7.20
2017-09-19T21:56:47.962Z,7.00
2017-09-19T21:59:21.809Z,6.90
2017-09-19T22:01:52.873Z,6.80
2017-09-19T22:04:24.013Z,6.80
2017-09-19T22:06:55.601Z,6.90
2017-09-19T22:09:23.629Z,6.80
2017-09-19T22:11:51.653Z,6.60
2017-09-19T22:14:24.893Z,6.50
2017-09-19T22:16:52.913Z,6.40
2017-09-19T22:19:21.189Z,6.40
2017-09-19T22:22:00.665Z,6.40
2017-09-19T22:27:27.337Z,6.30
2017-09-19T22:30:00.137Z,6.30
2017-09-19T22:32:29.115Z,6.30
2017-09-19T22:35:01.681Z,6.30
2017-09-19T22:37:29.721Z,6.30
2017-09-19T22:39:59.668Z,6.20
2017-09-19T22:42:28.664Z,6.20
2017-09-19T22:45:01.725Z,6.20
2017-09-19T22:47:36.232Z,6.10
2017-09-19T22:50:08.393Z,6.10
2017-09-19T22:52:49.881Z,6.00
2017-09-19T22:55:18.969Z,6.00
2017-09-19T22:57:52.949Z,5.90
2017-09-19T23:00:24.992Z,5.70
2017-09-19T23:03:17.185Z,5.60
2017-09-19T23:05:47.160Z,5.60
2017-09-19T23:08:15.952Z,5.60
2017-09-19T23:10:45.745Z,5.70
2017-09-19T23:13:14.757Z,5.60
2017-09-19T23:15:45.464Z,5.50
2017-09-19T23:18:30.972Z,5.50
2017-09-19T23:20:59.764Z,5.50
2017-09-19T23:23:35.060Z,5.40
2017-09-19T23:26:04.052Z,5.50
2017-09-19T23:28:35.932Z,5.50
2017-09-19T23:31:07.672Z,5.50
2017-09-19T23:33:51.168Z,5.30
2017-09-19T23:36:28.367Z,5.40
2017-09-19T23:39:01.392Z,5.30
2017-09-19T23:41:35.188Z,5.40
2017-09-19T23:44:19.712Z,5.50
2017-09-19T23:46:47.740Z,5.40
2017-09-19T23:52:09.869Z,5.50
2017-09-19T23:54:44.777Z,5.60
2017-09-19T23:57:13.780Z,5.60
2017-09-19T23:59:42.771Z,5.60
